EJU4637 LFPG-EGNM
Flight info
| Callsign | EJU4637 |
|---|---|
| Flight time | 0h 57m |
| Altitude | 36000 |
| Route | ATREX DCT VESAN DCT RATUK DCT SOVAT L613 SANDY UN601 EMBOR Q4 TNT N57 DENBY DCT LBA |
| Aircraft | A319/M-SDE3FGHIRWY/LB1 |
Departure
| Time | 2026-05-03 21:39 |
|---|---|
| Airport | Charles de Gaulle International Airport (LFPG) |
Arrival
| Time | 2026-05-03 22:36 |
|---|---|
| Airport | Leeds Bradford Airport (EGNM) |
| Time | Latitude | Longitude | Altitude | Speed | Heading |
|---|---|---|---|---|---|
| 2026-05-03 21:06 | 49.00698 | 2.56274 | 357 ft | 0 kts | 355° |
| 2026-05-03 21:25 | 49.00696 | 2.56275 | 355 ft | 3 kts | 355° |
| 2026-05-03 21:25 | 49.00669 | 2.56278 | 358 ft | 4 kts | 355° |
| 2026-05-03 21:26 | 49.00649 | 2.56280 | 362 ft | 4 kts | 333° |
| 2026-05-03 21:26 | 49.00641 | 2.56304 | 357 ft | 3 kts | 266° |
| 2026-05-03 21:26 | 49.00642 | 2.56326 | 356 ft | 0 kts | 265° |
| 2026-05-03 21:29 | 49.00642 | 2.56318 | 361 ft | 3 kts | 265° |
| 2026-05-03 21:30 | 49.00635 | 2.56211 | 361 ft | 11 kts | 265° |
| 2026-05-03 21:30 | 49.00626 | 2.56103 | 355 ft | 9 kts | 260° |
| 2026-05-03 21:30 | 49.00610 | 2.56013 | 355 ft | 9 kts | 251° |
| 2026-05-03 21:30 | 49.00581 | 2.55919 | 356 ft | 12 kts | 247° |
| 2026-05-03 21:31 | 49.00564 | 2.55777 | 357 ft | 14 kts | 265° |
| 2026-05-03 21:31 | 49.00558 | 2.55636 | 355 ft | 13 kts | 266° |
| 2026-05-03 21:31 | 49.00554 | 2.55510 | 354 ft | 12 kts | 268° |
| 2026-05-03 21:31 | 49.00550 | 2.55379 | 355 ft | 13 kts | 270° |
| 2026-05-03 21:32 | 49.00609 | 2.55261 | 361 ft | 16 kts | 337° |
| 2026-05-03 21:32 | 49.00714 | 2.55213 | 355 ft | 16 kts | 343° |
| 2026-05-03 21:32 | 49.00825 | 2.55162 | 355 ft | 18 kts | 343° |
| 2026-05-03 21:32 | 49.00964 | 2.55104 | 358 ft | 22 kts | 344° |
| 2026-05-03 21:33 | 49.01108 | 2.55041 | 356 ft | 20 kts | 345° |
| 2026-05-03 21:33 | 49.01244 | 2.54981 | 355 ft | 21 kts | 345° |
| 2026-05-03 21:33 | 49.01389 | 2.54923 | 355 ft | 22 kts | 346° |
| 2026-05-03 21:33 | 49.01541 | 2.54891 | 355 ft | 22 kts | 356° |
| 2026-05-03 21:34 | 49.01676 | 2.54871 | 355 ft | 2 kts | 352° |
| 2026-05-03 21:34 | 49.01705 | 2.54867 | 361 ft | 11 kts | 355° |
| 2026-05-03 21:34 | 49.01834 | 2.54853 | 355 ft | 22 kts | 356° |
| 2026-05-03 21:34 | 49.01940 | 2.54919 | 356 ft | 18 kts | 76° |
| 2026-05-03 21:35 | 49.01984 | 2.55070 | 354 ft | 16 kts | 4° |
| 2026-05-03 21:35 | 49.02046 | 2.55180 | 361 ft | 16 kts | 85° |
| 2026-05-03 21:35 | 49.02055 | 2.55350 | 354 ft | 17 kts | 85° |
| 2026-05-03 21:35 | 49.02066 | 2.55528 | 354 ft | 17 kts | 85° |
| 2026-05-03 21:36 | 49.02076 | 2.55715 | 357 ft | 18 kts | 85° |
| 2026-05-03 21:36 | 49.02086 | 2.55908 | 355 ft | 19 kts | 86° |
| 2026-05-03 21:36 | 49.02096 | 2.56121 | 355 ft | 21 kts | 86° |
| 2026-05-03 21:36 | 49.02148 | 2.56284 | 362 ft | 14 kts | 33° |
| 2026-05-03 21:37 | 49.02223 | 2.56296 | 359 ft | 0 kts | 338° |
| 2026-05-03 21:37 | 49.02231 | 2.56291 | 357 ft | 5 kts | 334° |
| 2026-05-03 21:38 | 49.02290 | 2.56204 | 359 ft | 17 kts | 310° |
| 2026-05-03 21:38 | 49.02316 | 2.56057 | 356 ft | 15 kts | 265° |
| 2026-05-03 21:38 | 49.02303 | 2.55801 | 355 ft | 51 kts | 265° |
| 2026-05-03 21:38 | 49.02250 | 2.54872 | 355 ft | 124 kts | 265° |
| 2026-05-03 21:39 | 49.02162 | 2.53285 | 549 ft | 161 kts | 263° |
| 2026-05-03 21:39 | 49.02092 | 2.51605 | 1353 ft | 158 kts | 265° |
| 2026-05-03 21:39 | 49.02029 | 2.49922 | 2115 ft | 159 kts | 265° |
| 2026-05-03 21:39 | 49.01959 | 2.48210 | 2798 ft | 164 kts | 264° |
| 2026-05-03 21:40 | 49.01871 | 2.46492 | 3514 ft | 164 kts | 262° |
| 2026-05-03 21:40 | 49.01759 | 2.44687 | 4027 ft | 180 kts | 262° |
| 2026-05-03 21:40 | 49.01831 | 2.42656 | 4381 ft | 207 kts | 283° |
| 2026-05-03 21:40 | 49.02634 | 2.40675 | 4769 ft | 238 kts | 315° |
| 2026-05-03 21:41 | 49.04069 | 2.39202 | 5264 ft | 264 kts | 326° |
| 2026-05-03 21:41 | 49.05666 | 2.37704 | 6141 ft | 274 kts | 325° |
| 2026-05-03 21:41 | 49.07310 | 2.36158 | 7099 ft | 279 kts | 325° |
| 2026-05-03 21:41 | 49.08974 | 2.34586 | 8071 ft | 283 kts | 325° |
| 2026-05-03 21:42 | 49.10665 | 2.32982 | 9072 ft | 288 kts | 324° |
| 2026-05-03 21:42 | 49.12407 | 2.31410 | 10032 ft | 295 kts | 332° |
| 2026-05-03 21:42 | 49.14476 | 2.30693 | 10540 ft | 321 kts | 358° |
| 2026-05-03 21:42 | 49.16755 | 2.30905 | 11092 ft | 337 kts | 2° |
| 2026-05-03 21:43 | 49.19121 | 2.31177 | 11902 ft | 344 kts | 2° |
| 2026-05-03 21:43 | 49.21532 | 2.31444 | 12744 ft | 349 kts | 2° |
| 2026-05-03 21:43 | 49.23992 | 2.31701 | 13576 ft | 355 kts | 1° |
| 2026-05-03 21:43 | 49.26441 | 2.31937 | 14314 ft | 360 kts | 1° |
| 2026-05-03 21:44 | 49.28971 | 2.32172 | 15054 ft | 364 kts | 1° |
| 2026-05-03 21:44 | 49.31528 | 2.32407 | 15787 ft | 369 kts | 1° |
| 2026-05-03 21:44 | 49.34086 | 2.32641 | 16497 ft | 374 kts | 1° |
| 2026-05-03 21:44 | 49.36703 | 2.32884 | 17220 ft | 379 kts | 1° |
| 2026-05-03 21:45 | 49.39362 | 2.33134 | 17938 ft | 384 kts | 1° |
| 2026-05-03 21:45 | 49.42051 | 2.33385 | 18586 ft | 389 kts | 1° |
| 2026-05-03 21:45 | 49.44773 | 2.33639 | 18885 ft | 392 kts | 0° |
| 2026-05-03 21:45 | 49.47515 | 2.33898 | 19480 ft | 396 kts | 0° |
| 2026-05-03 21:46 | 49.50284 | 2.34161 | 20144 ft | 400 kts | 0° |
| 2026-05-03 21:46 | 49.53044 | 2.34424 | 20796 ft | 403 kts | 0° |
| 2026-05-03 21:46 | 49.55867 | 2.34691 | 21424 ft | 407 kts | 360° |
| 2026-05-03 21:46 | 49.58708 | 2.34822 | 22025 ft | 408 kts | 351° |
| 2026-05-03 21:47 | 49.61466 | 2.33913 | 22614 ft | 403 kts | 334° |
| 2026-05-03 21:47 | 49.64034 | 2.32275 | 23226 ft | 404 kts | 331° |
| 2026-05-03 21:47 | 49.66634 | 2.30565 | 23796 ft | 408 kts | 330° |
| 2026-05-03 21:47 | 49.69266 | 2.28818 | 24301 ft | 412 kts | 330° |
| 2026-05-03 21:48 | 49.71911 | 2.27056 | 24779 ft | 416 kts | 330° |
| 2026-05-03 21:48 | 49.74591 | 2.25272 | 25265 ft | 421 kts | 330° |
| 2026-05-03 21:48 | 49.77269 | 2.23494 | 25754 ft | 424 kts | 330° |
| 2026-05-03 21:48 | 49.80012 | 2.21675 | 26213 ft | 428 kts | 330° |
| 2026-05-03 21:49 | 49.82765 | 2.19847 | 26667 ft | 431 kts | 330° |
| 2026-05-03 21:49 | 49.85504 | 2.18023 | 27132 ft | 435 kts | 330° |
| 2026-05-03 21:49 | 49.88303 | 2.16156 | 27576 ft | 439 kts | 330° |
| 2026-05-03 21:49 | 49.91132 | 2.14266 | 28015 ft | 443 kts | 330° |
| 2026-05-03 21:50 | 49.93974 | 2.12367 | 28447 ft | 446 kts | 330° |
| 2026-05-03 21:50 | 49.96818 | 2.10465 | 28904 ft | 449 kts | 330° |
| 2026-05-03 21:50 | 49.99706 | 2.08533 | 29366 ft | 452 kts | 329° |
| 2026-05-03 21:50 | 50.02608 | 2.06588 | 29807 ft | 456 kts | 329° |
| 2026-05-03 21:51 | 50.05538 | 2.04622 | 30195 ft | 459 kts | 329° |
| 2026-05-03 21:51 | 50.08481 | 2.02643 | 30563 ft | 462 kts | 329° |
| 2026-05-03 21:51 | 50.11453 | 2.00640 | 30921 ft | 465 kts | 329° |
| 2026-05-03 21:51 | 50.14388 | 1.98660 | 31279 ft | 467 kts | 329° |
| 2026-05-03 21:52 | 50.17377 | 1.96639 | 31650 ft | 469 kts | 329° |
| 2026-05-03 21:52 | 50.20375 | 1.94620 | 32183 ft | 467 kts | 330° |
| 2026-05-03 21:52 | 50.23360 | 1.92610 | 32709 ft | 465 kts | 329° |
| 2026-05-03 21:52 | 50.26341 | 1.90596 | 33217 ft | 464 kts | 329° |
| 2026-05-03 21:53 | 50.29302 | 1.88592 | 33714 ft | 463 kts | 329° |
| 2026-05-03 21:53 | 50.32264 | 1.86578 | 34170 ft | 462 kts | 329° |
| 2026-05-03 21:53 | 50.35190 | 1.84579 | 34568 ft | 461 kts | 329° |
| 2026-05-03 21:53 | 50.38144 | 1.82560 | 34985 ft | 461 kts | 330° |
| 2026-05-03 21:54 | 50.41024 | 1.80592 | 35365 ft | 460 kts | 331° |
| 2026-05-03 21:54 | 50.43958 | 1.78584 | 35746 ft | 459 kts | 332° |
| 2026-05-03 21:54 | 50.46896 | 1.76570 | 35917 ft | 458 kts | 332° |
| 2026-05-03 21:54 | 50.49793 | 1.74586 | 35948 ft | 451 kts | 332° |
| 2026-05-03 21:55 | 50.55492 | 1.70687 | 35944 ft | 446 kts | 332° |
| 2026-05-03 21:55 | 50.61183 | 1.66768 | 35943 ft | 445 kts | 331° |
| 2026-05-03 21:56 | 50.66580 | 1.62249 | 35939 ft | 437 kts | 318° |
| 2026-05-03 21:56 | 50.70416 | 1.57097 | 35936 ft | 433 kts | 313° |
| 2026-05-03 21:57 | 50.74953 | 1.50817 | 35935 ft | 433 kts | 313° |
| 2026-05-03 21:57 | 50.79493 | 1.44510 | 35933 ft | 433 kts | 313° |
| 2026-05-03 21:58 | 50.83985 | 1.38242 | 35950 ft | 433 kts | 313° |
| 2026-05-03 21:58 | 50.88511 | 1.31929 | 35948 ft | 433 kts | 314° |
| 2026-05-03 21:59 | 50.93045 | 1.25598 | 35937 ft | 434 kts | 313° |
| 2026-05-03 21:59 | 50.97543 | 1.19283 | 35933 ft | 434 kts | 313° |
| 2026-05-03 22:00 | 51.02054 | 1.12922 | 35930 ft | 434 kts | 313° |
| 2026-05-03 22:00 | 51.06504 | 1.06478 | 35930 ft | 431 kts | 307° |
| 2026-05-03 22:01 | 51.10306 | 0.99182 | 35931 ft | 428 kts | 304° |
| 2026-05-03 22:01 | 51.14076 | 0.91828 | 35954 ft | 428 kts | 304° |
| 2026-05-03 22:02 | 51.17824 | 0.84507 | 35960 ft | 428 kts | 304° |
| 2026-05-03 22:02 | 51.21596 | 0.77112 | 35973 ft | 428 kts | 304° |
| 2026-05-03 22:03 | 51.25337 | 0.69751 | 35984 ft | 428 kts | 304° |
| 2026-05-03 22:03 | 51.29085 | 0.62341 | 35989 ft | 428 kts | 304° |
| 2026-05-03 22:04 | 51.33178 | 0.55400 | 35917 ft | 432 kts | 311° |
| 2026-05-03 22:04 | 51.37490 | 0.48674 | 35917 ft | 432 kts | 311° |
| 2026-05-03 22:05 | 51.41802 | 0.41932 | 35929 ft | 432 kts | 311° |
| 2026-05-03 22:05 | 51.46081 | 0.35220 | 35939 ft | 432 kts | 311° |
| 2026-05-03 22:06 | 51.50384 | 0.28445 | 35939 ft | 432 kts | 311° |
| 2026-05-03 22:06 | 51.54643 | 0.21722 | 35940 ft | 432 kts | 311° |
| 2026-05-03 22:07 | 51.58930 | 0.14918 | 35946 ft | 431 kts | 311° |
| 2026-05-03 22:07 | 51.63185 | 0.08166 | 35942 ft | 431 kts | 311° |
| 2026-05-03 22:08 | 51.67465 | 0.01347 | 35936 ft | 431 kts | 311° |
| 2026-05-03 22:08 | 51.71725 | -0.05465 | 35948 ft | 431 kts | 311° |
| 2026-05-03 22:09 | 51.76237 | -0.11842 | 35945 ft | 437 kts | 323° |
| 2026-05-03 22:10 | 51.84081 | -0.19311 | 35915 ft | 438 kts | 326° |
| 2026-05-03 22:10 | 51.89311 | -0.24299 | 35913 ft | 438 kts | 326° |
| 2026-05-03 22:11 | 51.94567 | -0.29339 | 35914 ft | 438 kts | 326° |
| 2026-05-03 22:11 | 51.99794 | -0.34360 | 35914 ft | 438 kts | 326° |
| 2026-05-03 22:12 | 52.05054 | -0.39424 | 35924 ft | 438 kts | 326° |
| 2026-05-03 22:12 | 52.10274 | -0.44467 | 35921 ft | 438 kts | 326° |
| 2026-05-03 22:13 | 52.15521 | -0.49536 | 35919 ft | 438 kts | 326° |
| 2026-05-03 22:13 | 52.20789 | -0.54660 | 35284 ft | 442 kts | 325° |
| 2026-05-03 22:13 | 52.23390 | -0.57199 | 34790 ft | 440 kts | 325° |
| 2026-05-03 22:14 | 52.26023 | -0.59762 | 34262 ft | 438 kts | 325° |
| 2026-05-03 22:14 | 52.28648 | -0.62314 | 33723 ft | 436 kts | 326° |
| 2026-05-03 22:14 | 52.31254 | -0.64850 | 33192 ft | 433 kts | 325° |
| 2026-05-03 22:14 | 52.33794 | -0.67330 | 32691 ft | 429 kts | 325° |
| 2026-05-03 22:15 | 52.36353 | -0.69834 | 32198 ft | 426 kts | 325° |
| 2026-05-03 22:15 | 52.38889 | -0.72322 | 31700 ft | 422 kts | 325° |
| 2026-05-03 22:15 | 52.41405 | -0.74792 | 31213 ft | 419 kts | 325° |
| 2026-05-03 22:15 | 52.43901 | -0.77244 | 30729 ft | 416 kts | 325° |
| 2026-05-03 22:16 | 52.46345 | -0.79651 | 30265 ft | 413 kts | 325° |
| 2026-05-03 22:16 | 52.48810 | -0.82080 | 29759 ft | 410 kts | 325° |
| 2026-05-03 22:16 | 52.51248 | -0.84484 | 29308 ft | 405 kts | 325° |
| 2026-05-03 22:16 | 52.53629 | -0.86839 | 28863 ft | 401 kts | 325° |
| 2026-05-03 22:17 | 52.56010 | -0.89204 | 28429 ft | 397 kts | 325° |
| 2026-05-03 22:17 | 52.58367 | -0.91547 | 27992 ft | 393 kts | 325° |
| 2026-05-03 22:17 | 52.60708 | -0.93871 | 27551 ft | 390 kts | 325° |
| 2026-05-03 22:17 | 52.62999 | -0.96149 | 27114 ft | 388 kts | 325° |
| 2026-05-03 22:18 | 52.65304 | -0.98443 | 26674 ft | 385 kts | 325° |
| 2026-05-03 22:18 | 52.67591 | -1.00719 | 26228 ft | 383 kts | 326° |
| 2026-05-03 22:18 | 52.69877 | -1.02993 | 25753 ft | 381 kts | 326° |
| 2026-05-03 22:18 | 52.72126 | -1.05235 | 25277 ft | 380 kts | 326° |
| 2026-05-03 22:19 | 52.74384 | -1.07490 | 24837 ft | 378 kts | 326° |
| 2026-05-03 22:19 | 52.76639 | -1.09749 | 24335 ft | 377 kts | 327° |
| 2026-05-03 22:19 | 52.78884 | -1.11999 | 23835 ft | 376 kts | 327° |
| 2026-05-03 22:19 | 52.81089 | -1.14211 | 23301 ft | 375 kts | 327° |
| 2026-05-03 22:20 | 52.83320 | -1.16451 | 22784 ft | 373 kts | 327° |
| 2026-05-03 22:20 | 52.85571 | -1.18568 | 22278 ft | 370 kts | 330° |
| 2026-05-03 22:20 | 52.87852 | -1.20543 | 21764 ft | 369 kts | 330° |
| 2026-05-03 22:20 | 52.90123 | -1.22495 | 21172 ft | 369 kts | 330° |
| 2026-05-03 22:21 | 52.92379 | -1.24432 | 20617 ft | 368 kts | 330° |
| 2026-05-03 22:21 | 52.94655 | -1.26384 | 20058 ft | 368 kts | 330° |
| 2026-05-03 22:21 | 52.96933 | -1.28333 | 19550 ft | 367 kts | 330° |
| 2026-05-03 22:21 | 52.99199 | -1.30265 | 19052 ft | 365 kts | 330° |
| 2026-05-03 22:22 | 53.01459 | -1.32185 | 18580 ft | 363 kts | 330° |
| 2026-05-03 22:22 | 53.03697 | -1.34074 | 18079 ft | 361 kts | 330° |
| 2026-05-03 22:22 | 53.05937 | -1.35962 | 17536 ft | 360 kts | 330° |
| 2026-05-03 22:22 | 53.08174 | -1.37855 | 16998 ft | 358 kts | 330° |
| 2026-05-03 22:23 | 53.10389 | -1.39739 | 16467 ft | 356 kts | 330° |
| 2026-05-03 22:23 | 53.12570 | -1.41602 | 15965 ft | 355 kts | 330° |
| 2026-05-03 22:23 | 53.14763 | -1.43483 | 15451 ft | 353 kts | 330° |
| 2026-05-03 22:23 | 53.16927 | -1.45341 | 14936 ft | 344 kts | 330° |
| 2026-05-03 22:24 | 53.19032 | -1.47159 | 14460 ft | 338 kts | 330° |
| 2026-05-03 22:24 | 53.21124 | -1.48963 | 14054 ft | 336 kts | 330° |
| 2026-05-03 22:24 | 53.23141 | -1.50699 | 13951 ft | 323 kts | 330° |
| 2026-05-03 22:24 | 53.25102 | -1.52381 | 13940 ft | 311 kts | 331° |
| 2026-05-03 22:25 | 53.27034 | -1.54051 | 13420 ft | 310 kts | 331° |
| 2026-05-03 22:25 | 53.28947 | -1.55720 | 12886 ft | 309 kts | 331° |
| 2026-05-03 22:25 | 53.30837 | -1.57383 | 12363 ft | 307 kts | 330° |
| 2026-05-03 22:25 | 53.32725 | -1.59031 | 11838 ft | 304 kts | 330° |
| 2026-05-03 22:26 | 53.34577 | -1.60637 | 11347 ft | 300 kts | 330° |
| 2026-05-03 22:26 | 53.36414 | -1.62243 | 10812 ft | 295 kts | 330° |
| 2026-05-03 22:26 | 53.38233 | -1.63841 | 10305 ft | 295 kts | 331° |
| 2026-05-03 22:26 | 53.40161 | -1.64948 | 9776 ft | 300 kts | 352° |
| 2026-05-03 22:27 | 53.42248 | -1.65026 | 9240 ft | 299 kts | 0° |
| 2026-05-03 22:27 | 53.44301 | -1.64942 | 8992 ft | 290 kts | 0° |
| 2026-05-03 22:27 | 53.46318 | -1.64858 | 8987 ft | 288 kts | 0° |
| 2026-05-03 22:27 | 53.48299 | -1.64776 | 8991 ft | 288 kts | 0° |
| 2026-05-03 22:28 | 53.50307 | -1.64681 | 8991 ft | 288 kts | 0° |
| 2026-05-03 22:28 | 53.52314 | -1.64586 | 8991 ft | 288 kts | 0° |
| 2026-05-03 22:28 | 53.54336 | -1.64501 | 8541 ft | 292 kts | 0° |
| 2026-05-03 22:28 | 53.56335 | -1.64420 | 7960 ft | 289 kts | 0° |
| 2026-05-03 22:29 | 53.58338 | -1.64346 | 7404 ft | 285 kts | 0° |
| 2026-05-03 22:29 | 53.60317 | -1.64290 | 6857 ft | 282 kts | 0° |
| 2026-05-03 22:29 | 53.62275 | -1.64247 | 6307 ft | 278 kts | 1° |
| 2026-05-03 22:29 | 53.64179 | -1.64228 | 5747 ft | 275 kts | 1° |
| 2026-05-03 22:30 | 53.66069 | -1.64103 | 5180 ft | 269 kts | 12° |
| 2026-05-03 22:30 | 53.67719 | -1.62802 | 4659 ft | 259 kts | 41° |
| 2026-05-03 22:30 | 53.68810 | -1.60451 | 4175 ft | 250 kts | 59° |
| 2026-05-03 22:30 | 53.69647 | -1.57990 | 3934 ft | 232 kts | 60° |
| 2026-05-03 22:31 | 53.70406 | -1.55693 | 3696 ft | 216 kts | 60° |
| 2026-05-03 22:31 | 53.71123 | -1.53548 | 3481 ft | 203 kts | 59° |
| 2026-05-03 22:31 | 53.71795 | -1.51514 | 3245 ft | 199 kts | 59° |
| 2026-05-03 22:31 | 53.72479 | -1.49491 | 3043 ft | 194 kts | 55° |
| 2026-05-03 22:32 | 53.73506 | -1.48203 | 3002 ft | 183 kts | 17° |
| 2026-05-03 22:32 | 53.74753 | -1.48270 | 3025 ft | 183 kts | 345° |
| 2026-05-03 22:32 | 53.75782 | -1.49494 | 3009 ft | 181 kts | 323° |
| 2026-05-03 22:32 | 53.76682 | -1.50882 | 3001 ft | 170 kts | 323° |
| 2026-05-03 22:33 | 53.77549 | -1.52210 | 2948 ft | 166 kts | 323° |
| 2026-05-03 22:33 | 53.78397 | -1.53503 | 2751 ft | 166 kts | 324° |
| 2026-05-03 22:33 | 53.79256 | -1.54805 | 2530 ft | 163 kts | 324° |
| 2026-05-03 22:33 | 53.80081 | -1.56079 | 2346 ft | 155 kts | 324° |
| 2026-05-03 22:34 | 53.80839 | -1.57235 | 2133 ft | 142 kts | 326° |
| 2026-05-03 22:34 | 53.81547 | -1.58319 | 1923 ft | 137 kts | 326° |
| 2026-05-03 22:34 | 53.82251 | -1.59379 | 1748 ft | 134 kts | 325° |
| 2026-05-03 22:34 | 53.82935 | -1.60474 | 1532 ft | 134 kts | 324° |
| 2026-05-03 22:35 | 53.83624 | -1.61524 | 1386 ft | 131 kts | 324° |
| 2026-05-03 22:35 | 53.84297 | -1.62545 | 1183 ft | 128 kts | 323° |
| 2026-05-03 22:35 | 53.84954 | -1.63543 | 986 ft | 125 kts | 323° |
| 2026-05-03 22:35 | 53.85585 | -1.64528 | 809 ft | 124 kts | 324° |
| 2026-05-03 22:36 | 53.86226 | -1.65505 | 679 ft | 120 kts | 320° |
| 2026-05-03 22:36 | 53.86675 | -1.66188 | 664 ft | 41 kts | 317° |
| 2026-05-03 22:36 | 53.86836 | -1.66446 | 667 ft | 29 kts | 315° |
| 2026-05-03 22:36 | 53.86944 | -1.66583 | 669 ft | 15 kts | 360° |
| 2026-05-03 22:37 | 53.86998 | -1.66454 | 666 ft | 15 kts | 96° |
| 2026-05-03 22:37 | 53.86954 | -1.66317 | 666 ft | 12 kts | 122° |
| 2026-05-03 22:37 | 53.86896 | -1.66211 | 664 ft | 13 kts | 137° |
| 2026-05-03 22:37 | 53.86830 | -1.66110 | 665 ft | 13 kts | 135° |
| 2026-05-03 22:38 | 53.86815 | -1.65966 | 665 ft | 13 kts | 91° |
| 2026-05-03 22:38 | 53.86812 | -1.65813 | 665 ft | 13 kts | 92° |
| 2026-05-03 22:38 | 53.86816 | -1.65651 | 665 ft | 14 kts | 89° |
| 2026-05-03 22:38 | 53.86814 | -1.65496 | 665 ft | 11 kts | 91° |
| 2026-05-03 22:39 | 53.86822 | -1.65366 | 665 ft | 11 kts | 75° |
| 2026-05-03 22:39 | 53.86823 | -1.65252 | 665 ft | 1 kts | 91° |
| 2026-05-03 22:39 | 53.86823 | -1.65249 | 665 ft | 1 kts | 91° |
| 2026-05-03 22:39 | 53.86830 | -1.65216 | 664 ft | 4 kts | 37° |
| 2026-05-03 22:40 | 53.86859 | -1.65211 | 665 ft | 4 kts | 4° |
| 2026-05-03 22:40 | 53.86875 | -1.65210 | 665 ft | 0 kts | 1° |